createdAt,value
2018-04-28T00:02:46.386Z,100720.26
2018-04-28T00:07:47.356Z,100719.38
2018-04-28T00:12:48.324Z,100701.41
2018-04-28T00:17:49.349Z,100700.91
2018-04-28T00:23:05.230Z,100702.17
2018-04-28T00:28:07.176Z,100694.21
2018-04-28T00:33:23.078Z,100692.95
2018-04-28T00:38:24.094Z,100696.86
2018-04-28T00:43:25.065Z,100688.14
2018-04-28T00:48:47.763Z,100688.88
2018-04-28T00:53:48.715Z,100692.38
2018-04-28T00:58:51.563Z,100693.29
2018-04-28T01:03:53.425Z,100686.50
2018-04-28T01:08:55.361Z,100678.75
2018-04-28T01:13:57.294Z,100676.30
2018-04-28T01:18:58.273Z,100680.61
2018-04-28T01:24:02.056Z,100677.95
2018-04-28T01:29:06.987Z,100674.69
2018-04-28T01:34:14.999Z,100677.17
2018-04-28T01:39:17.856Z,100670.31
2018-04-28T01:44:43.710Z,100661.20
2018-04-28T01:49:49.668Z,100660.65
2018-04-28T01:54:51.503Z,100658.68
2018-04-28T01:59:53.439Z,100665.61
2018-04-28T02:04:58.220Z,100667.98
2018-04-28T02:09:59.196Z,100669.77
2018-04-28T02:15:06.984Z,100666.11
2018-04-28T02:20:13.893Z,100666.56
2018-04-28T02:25:14.849Z,100658.55
2018-04-28T02:30:15.806Z,100650.33
2018-04-28T02:35:17.563Z,100648.11
2018-04-28T02:46:02.397Z,100641.46
2018-04-28T02:51:12.318Z,100641.78
2018-04-28T02:56:20.412Z,100632.55
2018-04-28T03:01:33.716Z,100632.86
2018-04-28T03:06:50.586Z,100630.73
2018-04-28T03:12:07.325Z,100632.47
2018-04-28T03:17:09.116Z,100632.36
2018-04-28T03:22:10.093Z,100638.71
2018-04-28T03:27:11.875Z,100638.55
2018-04-28T03:32:12.826Z,100635.30
2018-04-28T03:37:20.550Z,100626.92
2018-04-28T03:42:27.210Z,100626.91
2018-04-28T03:53:03.831Z,100627.63
2018-04-28T03:58:17.140Z,100628.53
2018-04-28T04:03:22.088Z,100629.11
2018-04-28T04:08:35.444Z,100632.22
2018-04-28T04:13:50.072Z,100635.63
2018-04-28T04:18:51.887Z,100635.27
2018-04-28T04:29:37.664Z,100633.05
2018-04-28T04:34:43.450Z,100638.88
2018-04-28T04:39:56.602Z,100643.73
2018-04-28T04:45:18.262Z,100639.66
2018-04-28T04:56:20.489Z,100617.44
2018-04-28T05:07:00.690Z,100620.88
2018-04-28T05:18:02.429Z,100634.63
2018-04-28T05:23:15.552Z,100638.59
2018-04-28T05:28:23.742Z,100641.81
2018-04-28T05:33:37.214Z,100642.85
2018-04-28T05:50:14.812Z,100651.48
2018-04-28T05:55:31.742Z,100656.09
2018-04-28T06:00:32.714Z,100655.20
2018-04-28T06:05:38.563Z,100658.83
2018-04-28T06:10:46.486Z,100655.83
2018-04-28T06:15:59.841Z,100667.95
2018-04-28T06:21:03.385Z,100659.67
2018-04-28T06:26:04.451Z,100659.57
2018-04-28T06:31:05.335Z,100662.06
2018-04-28T06:36:06.324Z,100653.60
2018-04-28T06:41:07.385Z,100650.19
2018-04-28T06:46:08.326Z,100654.52
2018-04-28T06:51:09.309Z,100649.52
2018-04-28T06:56:10.273Z,100646.26
2018-04-28T07:01:11.260Z,100648.52
2018-04-28T07:06:12.224Z,100654.27
2018-04-28T07:11:13.229Z,100652.94
2018-04-28T07:16:14.217Z,100646.77
2018-04-28T07:21:15.419Z,100650.67
2018-04-28T07:26:16.368Z,100646.18
2018-04-28T07:31:17.372Z,100638.37
2018-04-28T07:36:18.362Z,100639.60
2018-04-28T07:41:19.344Z,100645.72
2018-04-28T07:46:20.326Z,100641.02
2018-04-28T07:51:21.295Z,100644.00
2018-04-28T07:56:22.276Z,100638.58
2018-04-28T08:01:23.244Z,100637.23
2018-04-28T08:06:24.216Z,100635.59
2018-04-28T08:11:25.297Z,100639.66
2018-04-28T08:16:28.085Z,100633.64
2018-04-28T08:21:29.198Z,100632.25
2018-04-28T08:26:30.185Z,100629.28
2018-04-28T08:31:31.167Z,100637.81
2018-04-28T08:36:32.146Z,100639.38
2018-04-28T08:41:33.144Z,100645.52
2018-04-28T08:46:34.123Z,100644.08
2018-04-28T08:51:35.117Z,100639.88
2018-04-28T08:57:48.270Z,100641.45
2018-04-28T09:02:49.257Z,100633.52
2018-04-28T09:07:50.226Z,100636.70
2018-04-28T09:12:51.222Z,100643.55
2018-04-28T09:17:52.234Z,100640.22
2018-04-28T09:22:53.252Z,100638.75
2018-04-28T09:27:54.206Z,100644.75
2018-04-28T09:32:55.258Z,100647.13
2018-04-28T09:37:56.176Z,100643.58
2018-04-28T09:42:57.143Z,100644.25
2018-04-28T09:47:58.111Z,100640.87
2018-04-28T09:52:59.068Z,100645.88
2018-04-28T09:58:05.739Z,100653.73
2018-04-28T10:03:06.707Z,100658.56
2018-04-28T10:08:07.699Z,100656.16
2018-04-28T10:13:08.664Z,100653.92
2018-04-28T10:18:09.683Z,100651.19
2018-04-28T10:23:10.650Z,100653.14
2018-04-28T10:28:11.634Z,100656.05
2018-04-28T10:33:12.615Z,100647.89
2018-04-28T10:38:13.604Z,100651.58
2018-04-28T10:43:14.595Z,100646.59
2018-04-28T10:48:15.584Z,100646.81
2018-04-28T10:53:16.575Z,100645.67
2018-04-28T10:58:17.557Z,100645.98
2018-04-28T11:03:18.541Z,100646.64
2018-04-28T11:08:19.532Z,100653.52
2018-04-28T11:13:20.525Z,100658.64
2018-04-28T11:18:21.575Z,100656.39
2018-04-28T11:23:24.431Z,100661.04
2018-04-28T11:28:25.668Z,100670.84
2018-04-28T11:33:26.722Z,100669.39
2018-04-28T11:38:27.738Z,100668.91
2018-04-28T11:43:28.718Z,100671.79
2018-04-28T11:48:29.765Z,100670.05
2018-04-28T11:53:30.750Z,100675.80
2018-04-28T11:58:31.715Z,100664.45
2018-04-28T12:03:32.711Z,100677.08
2018-04-28T12:08:33.687Z,100673.95
2018-04-28T12:13:34.665Z,100674.89
2018-04-28T12:18:35.695Z,100682.27
2018-04-28T12:23:36.743Z,100681.95
2018-04-28T12:28:37.723Z,100694.67
2018-04-28T12:33:38.737Z,100696.88
2018-04-28T12:38:39.743Z,100703.23
2018-04-28T12:43:40.831Z,100699.80
2018-04-28T12:48:41.846Z,100726.52
2018-04-28T12:53:42.836Z,100738.86
2018-04-28T12:58:43.806Z,100748.77
2018-04-28T13:03:44.827Z,100748.92
2018-04-28T13:08:45.819Z,100746.55
2018-04-28T13:13:46.794Z,100737.44
2018-04-28T13:18:47.812Z,100713.61
2018-04-28T13:23:48.853Z,100735.86
2018-04-28T13:28:49.849Z,100734.09
2018-04-28T13:33:50.853Z,100743.77
2018-04-28T13:38:51.825Z,100742.23
2018-04-28T13:43:52.828Z,100736.08
2018-04-28T13:48:53.837Z,100726.69
2018-04-28T13:53:54.806Z,100715.35
2018-04-28T13:58:55.827Z,100702.11
2018-04-28T14:03:56.836Z,100685.46
2018-04-28T14:08:57.883Z,100722.15
2018-04-28T14:13:58.888Z,100722.31
2018-04-28T14:18:59.904Z,100726.77
2018-04-28T14:24:00.957Z,100724.56
2018-04-28T14:29:01.959Z,100724.91
2018-04-28T14:34:02.949Z,100732.75
2018-04-28T14:39:04.029Z,100744.23
2018-04-28T14:44:05.135Z,100743.08
2018-04-28T14:49:06.103Z,100755.34
2018-04-28T14:54:07.089Z,100746.69
2018-04-28T14:59:08.063Z,100753.58
2018-04-28T15:04:09.046Z,100755.02
2018-04-28T15:09:10.007Z,100762.95
2018-04-28T15:14:11.014Z,100760.27
2018-04-28T15:19:12.041Z,100756.19
2018-04-28T15:24:13.094Z,100751.29
2018-04-28T15:29:14.081Z,100756.59
2018-04-28T15:34:15.028Z,100762.25
2018-04-28T15:39:15.997Z,100771.06
2018-04-28T15:44:16.983Z,100765.59
2018-04-28T15:49:17.977Z,100763.97
2018-04-28T15:54:18.950Z,100767.70
2018-04-28T15:59:19.941Z,100777.50
2018-04-28T16:04:20.928Z,100774.12
2018-04-28T16:09:21.916Z,100767.17
2018-04-28T16:14:22.884Z,100769.51
2018-04-28T16:19:23.904Z,100775.33
2018-04-28T16:24:24.911Z,100774.02
2018-04-28T16:29:25.883Z,100765.86
2018-04-28T16:34:26.871Z,100774.10
2018-04-28T16:39:27.860Z,100768.59
2018-04-28T16:44:28.840Z,100774.08
2018-04-28T16:49:29.860Z,100770.78
2018-04-28T16:54:30.837Z,100781.43
2018-04-28T16:59:31.828Z,100783.73
2018-04-28T17:04:32.809Z,100780.53
2018-04-28T17:09:33.768Z,100771.81
2018-04-28T17:14:34.766Z,100773.42
2018-04-28T17:19:35.880Z,100776.09
2018-04-28T17:24:36.887Z,100784.77
2018-04-28T17:29:37.896Z,100788.09
2018-04-28T17:34:38.900Z,100798.80
2018-04-28T17:39:39.913Z,100799.30
2018-04-28T17:44:40.930Z,100802.82
2018-04-28T17:49:41.930Z,100804.80
2018-04-28T17:54:42.912Z,100802.69
2018-04-28T17:59:43.882Z,100794.19
2018-04-28T18:04:44.907Z,100788.74
2018-04-28T18:09:45.931Z,100792.05
2018-04-28T18:14:46.923Z,100790.45
2018-04-28T18:19:47.950Z,100796.70
2018-04-28T18:24:48.946Z,100799.54
2018-04-28T18:29:49.942Z,100795.10
2018-04-28T18:34:50.934Z,100795.48
2018-04-28T18:39:51.951Z,100800.13
2018-04-28T18:44:52.973Z,100811.63
2018-04-28T18:49:53.938Z,100810.98
2018-04-28T18:54:54.925Z,100825.55
2018-04-28T18:59:55.942Z,100836.75
2018-04-28T19:04:56.958Z,100840.35
2018-04-28T19:09:57.934Z,100846.08
2018-04-28T19:14:58.925Z,100839.86
2018-04-28T19:20:00.349Z,100850.39
2018-04-28T19:25:01.393Z,100851.59
2018-04-28T19:30:02.401Z,100845.22
2018-04-28T19:35:03.401Z,100855.06
2018-04-28T19:40:04.372Z,100850.37
2018-04-28T19:45:05.356Z,100851.69
2018-04-28T19:50:06.353Z,100850.53
2018-04-28T19:55:07.348Z,100858.17
2018-04-28T20:00:08.362Z,100853.28
2018-04-28T20:05:09.365Z,100852.45
2018-04-28T20:10:10.400Z,100848.17
2018-04-28T20:15:11.398Z,100838.59
2018-04-28T20:20:12.448Z,100847.05
2018-04-28T20:25:17.413Z,100833.06
2018-04-28T20:30:18.464Z,100843.98
2018-04-28T20:35:19.412Z,100842.42
2018-04-28T20:40:20.384Z,100840.63
2018-04-28T20:45:21.361Z,100844.48
2018-04-28T20:50:22.373Z,100829.66
2018-04-28T20:55:23.360Z,100837.77
2018-04-28T21:00:24.320Z,100842.94
2018-04-28T21:05:25.340Z,100848.01
2018-04-28T21:10:26.317Z,100849.33
2018-04-28T21:15:27.337Z,100844.30
2018-04-28T21:20:28.347Z,100858.45
2018-04-28T21:25:29.351Z,100864.16
2018-04-28T21:30:30.359Z,100858.27
2018-04-28T21:35:31.340Z,100860.82
2018-04-28T21:40:32.320Z,100863.45
2018-04-28T21:45:33.303Z,100868.85
2018-04-28T21:50:34.288Z,100868.23
2018-04-28T21:55:35.267Z,100875.83
2018-04-28T22:00:36.255Z,100875.75
2018-04-28T22:05:37.223Z,100867.98
2018-04-28T22:10:38.236Z,100877.41
2018-04-28T22:15:39.208Z,100874.60
2018-04-28T22:20:40.199Z,100869.26
2018-04-28T22:25:41.219Z,100861.05
2018-04-28T22:30:42.213Z,100858.50
2018-04-28T22:35:43.168Z,100859.89
2018-04-28T22:40:44.197Z,100858.30
2018-04-28T22:45:45.185Z,100858.36
2018-04-28T22:50:46.165Z,100869.25
2018-04-28T22:55:47.181Z,100872.75
2018-04-28T23:00:48.172Z,100832.89
2018-04-28T23:05:49.156Z,100879.69
2018-04-28T23:10:50.152Z,100885.56
2018-04-28T23:15:51.133Z,100856.61
2018-04-28T23:20:52.151Z,100867.36
2018-04-28T23:25:53.126Z,100891.98
2018-04-28T23:30:54.148Z,100901.62
2018-04-28T23:35:55.116Z,100887.38
2018-04-28T23:40:56.112Z,100888.23
2018-04-28T23:45:57.128Z,100893.27
2018-04-28T23:50:58.080Z,100888.11
2018-04-28T23:55:59.052Z,100876.16
